Terminal Aerodrome Forecast
Issued by NWS

Home | Current Version | Previous Version | Text Only | Print | Product List | Glossary On
Versions: 1 2 3 4 5 6 7 8 9 10 11 12 13 14 15
553
FTUS46 KSGX 271918 AAA
TAFCRQ
TAF AMD
KCRQ 271918Z 2719/2818 25009KT P6SM BKN120
     FM280100 VRB04KT P6SM BKN100=

USA.gov is the U.S. government's official web portal to all federal, state and local government web resources and services.